Main page
METAR-TAF:

METAR-TAF

Airports :

Oberpfaffenhofen, Germany

latitude: 48-05N, longitude: 011-17E, elevation: 600 m

Current weather observation

The report was made 7 hours and 41 minutes ago, at 18:20 UTC
Wind 4 kt from the East
Temperature 11°C
Humidity 87%
Pressure 1020 hPa
Visibility 10 km or more
no clouds below 1500 m and no cumulonimbus

METAR: EDMO 251820Z 09004KT CAVOK 11/09 Q1020

Time: 04:01 (02:01 UTC)

Forecast

The report was made 9 hours and 1 minutes ago, at 17:00 UTC
Forecast valid from 25 at 18 UTC to 26 at 03 UTC
Wind 5 kt from the East/Northeast
Visibility 10 km or more
no clouds below 1500 m and no cumulonimbus
Becoming
from 25 at 20 UTC to 25 at 24 UTC
Visibility: 4000 m
mist
Temporary
from 26 at 01 UTC to 26 at 03 UTC
Visibility: 0800 m
patches of fog

TAF: EDMO 251700Z 2518/2603 07005KT CAVOK BECMG 2520/2524 4000 BR TEMPO 2601/2603 0800 BCFG

Weather observations and forecasts of more than 4000 airports (METAR and TAF reports).

The available stations are represented by yellow and red dots on the map.

Hover mouse over dot to see the name of the station.

Then click to see weather observations and forecasts.

To change the map : click on the green buttons with a black cross to zoom in, on the green button with a dash to zoom out, or on the green arrows for adjacent maps.


METAR-TAF: